Time;durP1;ratioP1;P1;durP2;ratioP2;P2;SDS_P1;SDS_P2;PMS_P1;PMS_P2;Temp;Humidity;BMP_temperature;BMP_pressure;BME280_temperature;BME280_humidity;BME280_pressure;Samples;Min_cycle;Max_cycle;Signal;HPM_P1;HPM_P2
2021/05/07 00:02:18;;;;;;;6.97;5.15;;;6.00;99.90;;;4.85;88.60;96712.19;4949462;28;20040;-64
2021/05/07 00:05:07;;;;;;;7.15;5.47;;;5.90;99.90;;;4.91;88.52;96730.00;4945285;29;20063;-64
2021/05/07 00:07:54;;;;;;;9.90;5.22;;;5.90;99.90;;;4.73;89.21;96728.88;4952162;28;20424;-65
2021/05/07 00:10:40;;;;;;;8.10;5.00;;;5.90;99.90;;;4.75;88.72;96721.97;4951176;28;20491;-64
2021/05/07 00:13:27;;;;;;;8.73;5.50;;;5.90;99.90;;;4.65;89.32;96729.09;4949883;28;20123;-64
2021/05/07 00:16:15;;;;;;;7.00;5.10;;;5.90;99.90;;;4.69;89.12;96737.56;4940724;28;20042;-64
2021/05/07 00:19:05;;;;;;;7.65;5.47;;;5.90;99.90;;;4.78;89.00;96730.38;4929812;29;20075;-65
2021/05/07 00:21:58;;;;;;;7.55;4.93;;;5.90;99.90;;;4.86;88.89;96722.44;4945710;28;20546;-64
2021/05/07 00:24:45;;;;;;;7.85;5.28;;;6.00;99.90;;;4.80;88.47;96726.03;4950250;28;20047;-64
2021/05/07 00:27:32;;;;;;;8.48;5.50;;;6.00;99.90;;;4.70;88.75;96719.53;4941511;28;20043;-64
2021/05/07 00:30:19;;;;;;;6.88;5.43;;;6.00;99.90;;;4.52;89.71;96727.84;4949621;28;20054;-64
2021/05/07 00:33:08;;;;;;;8.32;5.13;;;6.00;99.90;;;4.67;88.80;96722.19;4949939;29;20043;-65
2021/05/07 00:35:55;;;;;;;7.47;4.90;;;6.00;99.90;;;4.77;88.02;96721.00;4936576;29;20183;-64
2021/05/07 00:38:41;;;;;;;6.70;4.97;;;5.90;99.90;;;4.82;88.12;96718.28;4944608;28;20047;-64
2021/05/07 00:41:28;;;;;;;9.70;5.93;;;5.80;99.90;;;4.60;88.76;96725.84;4940637;28;20127;-64
2021/05/07 00:44:15;;;;;;;7.35;4.85;;;5.80;99.90;;;4.47;89.27;96730.56;4949871;29;20059;-64
2021/05/07 00:47:05;;;;;;;7.45;5.10;;;5.80;99.90;;;4.56;89.00;96737.97;4950558;28;20051;-64
2021/05/07 00:49:50;;;;;;;7.13;5.28;;;5.80;99.90;;;4.63;88.87;96728.34;4948223;28;20050;-64
2021/05/07 00:52:37;;;;;;;7.30;5.38;;;5.70;99.90;;;4.56;88.44;96731.97;4948595;28;20058;-64
2021/05/07 00:55:26;;;;;;;6.85;5.05;;;5.80;99.90;;;4.80;87.94;96731.19;4945766;28;20145;-64
2021/05/07 00:58:14;;;;;;;6.78;5.05;;;5.70;99.90;;;4.68;88.38;96731.59;4948707;29;20047;-64
2021/05/07 01:01:00;;;;;;;8.07;5.25;;;5.70;99.90;;;4.63;87.83;96742.91;4945451;29;20110;-64
2021/05/07 01:03:47;;;;;;;8.02;5.18;;;5.70;99.90;;;4.67;87.76;96729.91;4947329;28;20571;-64
2021/05/07 01:06:34;;;;;;;7.75;4.65;;;5.70;99.90;;;4.68;87.28;96731.59;4936724;28;20039;-65
2021/05/07 01:09:21;;;;;;;7.45;5.00;;;5.70;99.90;;;4.69;86.48;96728.13;4947402;29;20063;-65
2021/05/07 01:12:08;;;;;;;7.03;4.53;;;5.60;99.90;;;4.75;86.84;96720.22;4948841;28;20054;-65
2021/05/07 01:15:16;;;;;;;5.93;4.43;;;5.60;99.90;;;4.64;87.23;96718.91;4935493;28;20058;-65
2021/05/07 01:18:03;;;;;;;7.13;4.95;;;5.60;99.90;;;4.57;87.55;96721.66;4942950;28;20043;-65
2021/05/07 01:20:50;;;;;;;5.70;4.25;;;5.70;99.90;;;4.72;87.06;96722.91;4949924;29;20103;-64
2021/05/07 01:23:37;;;;;;;6.95;5.22;;;5.70;99.90;;;4.57;87.31;96708.81;4950484;28;20074;-65
2021/05/07 01:26:24;;;;;;;6.57;4.90;;;5.60;99.90;;;4.56;88.07;96726.84;4936547;29;20393;-65
2021/05/07 01:29:12;;;;;;;7.88;5.47;;;5.60;99.90;;;4.63;87.92;96710.34;4948917;28;20126;-65
2021/05/07 01:31:59;;;;;;;9.10;5.95;;;5.60;99.90;;;4.42;88.19;96711.03;4944411;29;20039;-65
2021/05/07 01:34:46;;;;;;;6.68;4.82;;;5.70;99.90;;;4.46;88.84;96722.91;4942722;28;20427;-65
2021/05/07 01:37:33;;;;;;;8.70;5.18;;;5.70;99.90;;;4.44;88.18;96735.78;4935917;28;20058;-65
2021/05/07 01:40:29;;;;;;;7.75;4.60;;;5.70;99.90;;;4.58;87.22;96731.06;4942941;28;20043;-65
2021/05/07 01:43:18;;;;;;;6.60;4.60;;;5.70;99.90;;;4.44;87.06;96738.34;4947799;28;20060;-65
2021/05/07 01:46:05;;;;;;;8.52;4.65;;;5.70;99.90;;;4.55;86.53;96723.44;4943428;28;20048;-65
2021/05/07 01:48:52;;;;;;;8.50;4.57;;;5.60;99.90;;;4.56;86.33;96731.97;4942667;28;20596;-65
2021/05/07 01:51:39;;;;;;;7.30;4.72;;;5.60;99.90;;;4.48;86.69;96745.09;4948476;28;20046;-65
2021/05/07 01:54:26;;;;;;;7.68;4.70;;;5.60;99.90;;;4.56;86.72;96744.81;4935855;29;20043;-65
2021/05/07 01:57:13;;;;;;;9.05;5.63;;;5.50;99.90;;;4.47;87.36;96755.41;4942474;28;20388;-65
2021/05/07 02:00:00;;;;;;;13.45;5.20;;;5.50;99.90;;;4.39;87.60;96753.91;4946081;28;20494;-65
2021/05/07 02:02:48;;;;;;;9.07;5.30;;;5.60;99.90;;;4.42;88.07;96755.53;4950074;29;20122;-65
2021/05/07 02:05:35;;;;;;;12.45;6.80;;;5.60;99.90;;;4.43;87.91;96751.28;4943687;28;20149;-65
2021/05/07 02:08:22;;;;;;;9.05;6.35;;;5.60;99.90;;;4.52;87.63;96750.97;4934860;29;20043;-65
2021/05/07 02:11:09;;;;;;;7.28;5.63;;;5.60;99.90;;;4.66;87.19;96741.09;4934817;28;20582;-64
2021/05/07 02:13:55;;;;;;;8.25;5.25;;;5.60;99.90;;;4.42;87.97;96745.28;4932889;29;20051;-65
2021/05/07 02:16:42;;;;;;;9.23;6.03;;;5.60;99.90;;;4.53;87.13;96745.78;4944404;28;20138;-64
2021/05/07 02:19:29;;;;;;;7.53;5.50;;;5.60;99.90;;;4.50;87.04;96757.91;4941862;28;20043;-65
2021/05/07 02:22:16;;;;;;;8.48;5.75;;;5.50;99.90;;;4.53;86.94;96743.19;4933310;29;20168;-65
2021/05/07 02:25:04;;;;;;;11.23;6.30;;;5.50;99.90;;;4.49;87.24;96749.31;4941881;28;20039;-65
2021/05/07 02:27:53;;;;;;;12.85;7.13;;;5.60;99.90;;;4.38;88.01;96754.81;4947858;28;20499;-65
2021/05/07 02:30:40;;;;;;;9.00;6.30;;;5.50;99.90;;;4.44;87.51;96764.06;4934080;29;20076;-65
2021/05/07 02:33:26;;;;;;;10.48;6.35;;;5.60;99.90;;;4.33;87.85;96771.25;4929937;29;20058;-65
2021/05/07 02:36:13;;;;;;;10.50;6.10;;;5.50;99.90;;;4.45;87.60;96767.44;4949168;28;20051;-64
2021/05/07 02:39:00;;;;;;;11.48;7.38;;;5.50;99.90;;;4.41;88.18;96769.28;4946256;28;20043;-65
2021/05/07 02:41:47;;;;;;;11.50;6.57;;;5.50;99.90;;;4.49;87.55;96775.03;4948566;29;20051;-65
2021/05/07 02:44:33;;;;;;;9.40;6.35;;;5.50;99.90;;;4.58;87.30;96772.19;4948758;29;20055;-65
2021/05/07 02:47:20;;;;;;;10.35;6.78;;;5.50;99.90;;;4.46;87.71;96779.44;4943656;28;20071;-65
2021/05/07 02:50:09;;;;;;;9.27;5.65;;;5.50;99.90;;;4.54;87.74;96780.88;4943019;28;20054;-65
2021/05/07 02:52:56;;;;;;;9.73;6.85;;;5.60;99.90;;;4.48;87.87;96770.78;4943805;28;20623;-65
2021/05/07 02:55:43;;;;;;;11.02;7.43;;;5.60;99.90;;;4.61;87.77;96771.25;4948186;29;20409;-65
2021/05/07 02:58:30;;;;;;;11.63;6.50;;;5.50;99.90;;;4.65;87.38;96766.84;4947386;28;20055;-65
2021/05/07 03:01:17;;;;;;;10.10;7.10;;;5.50;99.90;;;4.63;87.13;96782.31;4935552;28;20095;-64
2021/05/07 03:04:04;;;;;;;11.82;7.53;;;5.50;99.90;;;4.60;87.48;96788.38;4942309;28;20047;-65
2021/05/07 03:06:51;;;;;;;9.00;6.28;;;5.50;99.90;;;4.49;87.68;96793.00;4943197;28;20376;-65
2021/05/07 03:09:38;;;;;;;10.13;7.15;;;5.50;99.90;;;4.52;87.44;96798.06;4941143;28;20125;-65
2021/05/07 03:12:25;;;;;;;10.65;6.63;;;5.50;99.90;;;4.56;87.42;96804.81;4947784;28;20051;-65
2021/05/07 03:15:13;;;;;;;10.70;7.38;;;5.50;99.90;;;4.56;87.32;96801.38;4942275;29;20130;-65
2021/05/07 03:18:01;;;;;;;11.35;7.38;;;5.50;99.90;;;4.42;87.79;96809.50;4918729;29;20211;-65
2021/05/07 03:20:50;;;;;;;13.75;7.95;;;5.60;99.90;;;4.55;87.33;96800.53;4926987;29;20515;-65
2021/05/07 03:23:37;;;;;;;9.18;6.93;;;5.60;99.90;;;4.57;87.65;96813.34;4949009;28;20067;-65
2021/05/07 03:26:23;;;;;;;13.02;8.02;;;5.60;99.90;;;4.51;87.17;96806.66;4935482;28;20054;-65
2021/05/07 03:29:10;;;;;;;9.90;7.80;;;5.50;99.90;;;4.39;87.67;96809.59;4941578;29;20060;-65
2021/05/07 03:31:52;;;;;;;11.40;7.38;;;5.50;99.90;;;4.45;86.94;96816.28;4930188;29;20054;-65
2021/05/07 03:34:19;;;;;;;10.35;7.50;;;5.40;99.90;;;4.49;87.04;96812.72;4927452;28;20495;-65
2021/05/07 03:36:46;;;;;;;10.60;7.10;;;5.30;99.90;;;4.33;87.08;96827.78;4932379;29;20099;-65
2021/05/07 03:39:33;;;;;;;11.15;7.43;;;5.30;99.90;;;4.37;86.83;96830.19;4937240;28;20047;-65
2021/05/07 03:42:20;;;;;;;10.35;6.90;;;5.30;99.90;;;4.29;87.13;96829.59;4934031;29;20048;-65
2021/05/07 03:45:08;;;;;;;8.77;6.50;;;5.30;99.90;;;4.29;87.76;96844.16;4948484;29;20043;-65
2021/05/07 03:47:55;;;;;;;9.85;6.93;;;5.30;99.90;;;4.27;87.04;96844.22;4947107;28;20183;-65
2021/05/07 03:50:43;;;;;;;11.93;7.65;;;5.30;99.90;;;4.33;87.24;96848.31;4947644;28;20542;-65
2021/05/07 03:53:30;;;;;;;11.45;6.80;;;5.30;99.90;;;4.09;87.86;96848.16;4940240;28;20056;-65
2021/05/07 03:56:16;;;;;;;10.50;6.95;;;5.30;99.90;;;4.21;87.15;96862.38;4937898;28;20051;-64
2021/05/07 03:59:04;;;;;;;10.23;6.60;;;5.20;99.90;;;4.03;87.96;96865.47;4937944;29;20524;-65
2021/05/07 04:01:51;;;;;;;11.02;7.47;;;5.20;99.90;;;4.14;87.31;96868.56;4940963;28;20492;-65
2021/05/07 04:04:40;;;;;;;9.77;6.45;;;5.20;99.90;;;4.03;88.40;96875.72;4935829;29;20055;-65
2021/05/07 04:07:28;;;;;;;10.52;7.15;;;5.20;99.90;;;4.17;87.86;96871.03;4948022;28;20050;-65
2021/05/07 04:10:19;;;;;;;9.07;6.03;;;5.20;99.90;;;4.27;87.23;96889.63;4951440;28;20050;-65
2021/05/07 04:16:14;;;;;;;10.40;7.32;;;5.30;99.90;;;4.13;88.09;96892.59;4943677;28;20385;-65
2021/05/07 04:19:01;;;;;;;13.05;8.02;;;5.30;99.90;;;4.18;87.67;96894.13;4940177;28;20176;-65
2021/05/07 04:21:48;;;;;;;10.35;6.68;;;5.30;99.90;;;4.13;87.93;96896.00;4943629;28;20088;-66
2021/05/07 04:24:35;;;;;;;10.93;6.80;;;5.30;99.90;;;4.17;87.47;96907.88;4944572;29;20096;-65
2021/05/07 04:27:22;;;;;;;9.75;6.78;;;5.30;99.90;;;4.25;87.05;96905.06;4936534;29;20526;-65
2021/05/07 04:30:08;;;;;;;11.10;6.85;;;5.30;99.90;;;4.26;85.97;96901.59;4943040;29;20058;-65
2021/05/07 04:32:55;;;;;;;9.07;5.80;;;5.30;99.90;;;4.36;85.40;96912.47;4933817;29;20047;-65
2021/05/07 04:35:43;;;;;;;9.50;6.90;;;5.30;99.90;;;4.36;85.19;96922.75;4951475;28;20311;-65
2021/05/07 04:38:30;;;;;;;10.45;6.13;;;5.30;99.90;;;4.33;84.33;96915.13;4946122;28;20055;-65
2021/05/07 04:41:16;;;;;;;9.02;5.43;;;5.30;99.90;;;4.35;85.00;96921.91;4938360;29;20051;-65
2021/05/07 04:44:04;;;;;;;10.27;6.05;;;5.40;99.90;;;4.33;82.97;96925.41;4950584;29;20039;-65
2021/05/07 04:46:52;;;;;;;8.68;5.78;;;5.40;99.90;;;4.51;83.22;96929.19;4946039;28;20039;-65
2021/05/07 04:49:39;;;;;;;11.40;5.97;;;5.40;99.90;;;4.36;83.96;96933.88;4952312;28;20091;-65
2021/05/07 04:52:26;;;;;;;8.88;6.28;;;5.50;99.90;;;4.38;83.02;96944.97;4918995;28;20419;-65
2021/05/07 04:55:13;;;;;;;10.07;6.60;;;5.50;99.90;;;4.38;81.78;96941.56;4953764;29;20066;-65
2021/05/07 04:57:59;;;;;;;13.35;7.85;;;5.40;99.90;;;4.29;81.71;96952.91;4946473;28;20054;-65
2021/05/07 05:00:44;;;;;;;11.48;7.75;;;5.40;99.90;;;4.15;80.38;96955.00;4948889;28;20058;-66
2021/05/07 05:03:35;;;;;;;14.40;6.97;;;5.40;99.90;;;4.15;81.04;96958.44;4946430;28;20172;-66
2021/05/07 05:06:20;;;;;;;10.13;7.18;;;5.30;99.90;;;4.26;81.19;96960.69;4951802;28;20061;-66
2021/05/07 05:09:06;;;;;;;11.63;7.90;;;5.30;99.90;;;4.29;80.80;96970.03;4953432;29;20202;-66
2021/05/07 05:11:53;;;;;;;10.32;6.60;;;5.30;99.90;;;4.46;80.33;96972.16;4933277;28;20078;-66
2021/05/07 05:14:39;;;;;;;8.85;5.85;;;5.50;99.90;;;4.82;80.62;96981.38;4945531;29;20047;-66
2021/05/07 05:17:31;;;;;;;11.63;7.28;;;5.80;99.90;;;4.81;81.31;96987.44;4950678;28;20066;-66
2021/05/07 05:20:18;;;;;;;8.07;5.65;;;6.00;99.90;;;4.82;81.39;96983.13;4950370;28;20259;-66
2021/05/07 05:23:05;;;;;;;7.90;5.60;;;6.00;99.90;;;4.80;81.19;96985.72;4946602;28;20044;-66
2021/05/07 05:25:52;;;;;;;12.00;6.50;;;6.10;99.90;;;4.75;80.32;96985.03;4933706;29;20055;-66
2021/05/07 05:28:39;;;;;;;9.30;6.00;;;6.10;99.90;;;4.79;81.30;96986.63;4950096;28;20507;-66
2021/05/07 05:31:26;;;;;;;9.65;6.43;;;6.10;99.90;;;4.80;80.00;96992.59;4951630;28;20043;-67
2021/05/07 05:34:12;;;;;;;9.48;6.20;;;6.00;99.90;;;4.63;80.04;97000.81;4944928;29;20051;-66
2021/05/07 05:36:59;;;;;;;10.85;5.78;;;5.80;99.90;;;4.72;80.13;97003.13;4935332;28;20150;-66
2021/05/07 05:39:47;;;;;;;14.85;6.82;;;5.70;99.90;;;4.55;79.13;97000.16;4947141;29;20052;-66
2021/05/07 05:42:52;;;;;;;14.88;7.18;;;5.60;99.90;;;4.46;80.26;97013.28;4946558;28;20050;-66
2021/05/07 05:45:38;;;;;;;11.90;7.20;;;5.50;99.90;;;4.67;79.72;97016.97;4946529;28;20051;-66
2021/05/07 05:48:25;;;;;;;11.68;7.90;;;5.60;99.90;;;4.65;78.31;97018.75;4934063;28;20044;-66
2021/05/07 05:51:12;;;;;;;12.38;7.90;;;5.70;99.90;;;4.78;77.36;97018.34;4936746;29;20043;-66
2021/05/07 05:53:59;;;;;;;12.35;7.90;;;5.90;99.90;;;4.96;78.03;97029.00;4945436;28;20087;-64
2021/05/07 05:56:46;;;;;;;12.38;7.97;;;6.00;99.90;;;5.08;76.58;97025.22;4940960;28;20131;-64
2021/05/07 05:59:33;;;;;;;10.75;7.10;;;6.20;99.90;;;5.07;76.65;97031.28;4937569;28;20400;-64
2021/05/07 06:02:20;;;;;;;13.10;7.93;;;6.20;99.90;;;5.17;76.61;97028.38;4949459;28;20516;-65
2021/05/07 06:04:50;;;;;;;10.55;7.55;;;6.30;99.90;;;5.12;77.17;97037.94;4924041;29;20098;-64
2021/05/07 06:07:17;;;;;;;13.32;8.07;;;6.40;99.90;;;5.27;76.57;97039.25;4949960;28;20066;-65
2021/05/07 06:09:43;;;;;;;11.35;7.47;;;6.50;99.90;;;5.07;75.63;97047.53;4951472;28;20449;-64
2021/05/07 06:12:10;;;;;;;13.80;8.73;;;6.40;99.90;;;5.02;76.53;97045.09;4947223;28;20511;-65
2021/05/07 06:14:57;;;;;;;18.73;9.38;;;6.40;99.90;;;4.80;76.87;97044.88;4928342;29;20096;-65
2021/05/07 06:17:45;;;;;;;14.10;9.48;;;6.30;99.90;;;5.01;76.65;97051.13;4929370;29;20051;-64
2021/05/07 06:20:32;;;;;;;12.02;7.90;;;6.30;99.90;;;5.42;76.60;97046.47;4943717;28;20048;-65
2021/05/07 06:23:18;;;;;;;12.30;8.65;;;6.40;99.90;;;5.20;75.36;97053.16;4929092;29;20054;-65
2021/05/07 06:26:05;;;;;;;14.68;8.88;;;6.40;99.90;;;5.20;74.95;97054.03;4942028;28;20044;-64
2021/05/07 06:28:52;;;;;;;14.98;8.75;;;6.30;99.90;;;5.15;75.91;97055.88;4951480;29;20052;-64
2021/05/07 06:31:39;;;;;;;17.90;10.45;;;6.40;99.90;;;4.79;75.68;97057.78;4942971;28;20570;-64
2021/05/07 06:34:26;;;;;;;16.33;9.20;;;6.40;99.90;;;5.52;76.41;97054.78;4936611;28;20115;-64
2021/05/07 06:37:13;;;;;;;13.65;9.18;;;6.50;99.90;;;5.61;74.94;97061.34;4942809;28;20054;-65
2021/05/07 06:40:01;;;;;;;12.25;9.00;;;6.70;99.90;;;5.82;74.24;97058.13;4935946;28;20051;-64
2021/05/07 06:42:48;;;;;;;15.55;9.10;;;6.80;99.90;;;5.97;74.51;97061.94;4934460;28;20527;-65
2021/05/07 06:45:36;;;;;;;16.67;9.27;;;7.10;99.90;;;6.12;73.29;97060.63;4947898;29;20043;-65
2021/05/07 06:48:23;;;;;;;13.27;9.93;;;7.10;99.90;;;5.89;72.32;97069.06;4904790;29;20595;-64
2021/05/07 06:51:00;;;;;;;13.43;9.55;;;7.10;99.90;;;6.27;71.94;97074.72;4933247;29;20127;-65
2021/05/07 06:53:29;;;;;;;16.92;10.23;;;7.20;99.90;;;6.38;72.57;97077.78;4942719;28;20513;-65
2021/05/07 06:55:56;;;;;;;16.48;10.30;;;7.30;99.90;;;5.67;67.78;97092.06;4915331;29;20114;-65
2021/05/07 06:58:59;;;;;;;13.07;9.57;;;7.50;99.90;;;5.58;71.30;97093.19;4932606;29;20047;-65
2021/05/07 07:01:46;;;;;;;14.65;9.93;;;7.30;99.90;;;5.98;70.40;97088.56;4923132;29;20055;-64
2021/05/07 07:04:33;;;;;;;16.45;9.48;;;7.30;99.90;;;6.11;69.50;97097.56;4951640;28;20047;-65
2021/05/07 07:07:19;;;;;;;14.80;9.15;;;7.40;99.90;;;6.44;70.24;97100.78;4950296;28;20044;-65
2021/05/07 07:10:07;;;;;;;15.45;9.57;;;7.50;99.90;;;6.06;69.97;97107.19;4922687;28;20131;-65
2021/05/07 07:12:54;;;;;;;14.70;8.90;;;7.50;99.90;;;5.88;67.61;97129.19;4933712;28;20043;-65
2021/05/07 07:15:42;;;;;;;14.70;9.85;;;7.40;99.90;;;6.02;68.78;97115.91;4945760;28;20050;-65
2021/05/07 07:18:28;;;;;;;13.20;9.50;;;7.40;99.90;;;6.19;67.45;97116.22;4933422;28;20058;-65
2021/05/07 07:21:16;;;;;;;13.70;9.10;;;7.50;99.90;;;6.49;66.84;97108.34;4932798;28;20122;-65
2021/05/07 07:24:04;;;;;;;12.68;7.95;;;7.60;99.90;;;6.82;66.08;97113.25;4949528;29;20138;-64
2021/05/07 07:26:51;;;;;;;14.25;7.70;;;7.70;99.90;;;7.04;64.20;97121.91;4936111;28;20047;-65
2021/05/07 07:29:38;;;;;;;14.98;8.23;;;8.00;99.90;;;7.20;65.00;97123.94;4935274;29;20054;-64
2021/05/07 07:32:26;;;;;;;10.20;6.72;;;8.10;99.90;;;6.86;61.96;97136.28;4933353;28;20043;-65
2021/05/07 07:35:16;;;;;;;11.02;7.65;;;8.10;99.90;;;6.74;61.89;97136.72;4937538;28;20048;-64
2021/05/07 07:38:03;;;;;;;12.18;7.35;;;8.00;99.90;;;7.05;63.76;97141.69;4933030;28;20040;-65
2021/05/07 07:40:51;;;;;;;12.65;6.80;;;8.20;99.90;;;7.27;62.31;97140.88;4944376;29;20039;-64
2021/05/07 07:43:39;;;;;;;10.68;7.38;;;8.40;99.90;;;7.25;61.94;97148.72;4935637;29;20407;-65
2021/05/07 07:46:30;;;;;;;12.60;6.97;;;8.50;99.90;;;7.38;61.24;97154.25;4942415;28;20066;-65
2021/05/07 07:49:17;;;;;;;11.32;6.72;;;8.50;99.90;;;7.42;60.94;97153.25;4945818;28;20066;-65
2021/05/07 07:52:07;;;;;;;9.05;6.03;;;8.50;99.90;;;7.81;60.06;97154.41;4952626;29;20066;-65
2021/05/07 07:54:54;;;;;;;13.38;7.03;;;8.50;99.90;;;7.28;58.57;97158.09;4950012;28;20123;-65
2021/05/07 07:57:45;;;;;;;15.75;6.22;;;8.70;99.90;;;7.39;58.94;97160.25;4932958;29;20039;-65
2021/05/07 08:00:33;;;;;;;10.02;5.93;;;8.80;99.90;;;7.01;57.86;97180.53;4947427;29;20071;-64
2021/05/07 08:03:19;;;;;;;13.77;6.63;;;9.00;99.90;;;7.26;55.42;97183.94;4938488;29;20051;-65
2021/05/07 08:06:06;;;;;;;13.18;6.40;;;9.10;99.90;;;7.78;55.67;97178.63;4944953;28;20051;-65
2021/05/07 08:08:53;;;;;;;9.73;5.60;;;9.40;99.90;;;8.43;55.45;97178.72;4932154;29;20050;-65
2021/05/07 08:11:40;;;;;;;8.82;6.20;;;9.80;99.90;;;8.86;54.22;97192.47;4930268;29;20036;-65
2021/05/07 08:14:27;;;;;;;9.40;5.90;;;10.40;99.90;;;9.66;55.37;97189.84;4948769;29;20043;-65
2021/05/07 08:17:14;;;;;;;7.72;5.18;;;10.80;99.90;;;9.33;54.08;97177.50;4946815;28;20046;-65
2021/05/07 08:20:05;;;;;;;10.07;5.90;;;11.00;99.90;;;8.27;54.50;97183.63;4943828;29;20191;-65
2021/05/07 08:22:52;;;;;;;8.93;6.13;;;10.90;99.90;;;8.73;52.60;97189.53;4951460;29;20114;-65
2021/05/07 08:25:38;;;;;;;12.38;5.40;;;10.90;99.90;;;10.09;52.70;97190.47;4952603;29;20388;-65
2021/05/07 08:28:26;;;;;;;8.43;5.90;;;11.50;99.90;;;10.44;46.78;97186.22;4951175;29;20035;-66
2021/05/07 08:31:13;;;;;;;8.25;5.45;;;11.80;99.90;;;10.01;48.56;97195.16;4936092;28;20059;-65
2021/05/07 08:34:00;;;;;;;7.57;4.78;;;11.80;99.90;;;11.17;47.09;97193.03;4945357;28;20044;-66
2021/05/07 08:36:50;;;;;;;8.05;4.75;;;12.40;99.90;;;9.60;48.83;97216.03;4947834;29;20055;-66
2021/05/07 08:39:38;;;;;;;8.43;5.13;;;12.10;99.90;;;8.56;50.58;97234.22;4947522;29;20060;-66
2021/05/07 08:42:25;;;;;;;8.30;5.25;;;11.70;99.90;;;9.89;46.83;97216.47;4950477;29;20047;-65
2021/05/07 08:45:13;;;;;;;7.95;5.10;;;11.60;99.90;;;9.52;49.77;97234.50;4937535;29;20096;-65
2021/05/07 08:48:20;;;;;;;7.40;5.80;;;11.50;99.90;;;9.51;47.76;97227.66;4953108;28;20062;-65
2021/05/07 08:51:07;;;;;;;8.35;5.30;;;11.30;99.90;;;8.18;50.90;97234.78;4951081;29;20157;-65
2021/05/07 08:53:54;;;;;;;9.60;5.43;;;10.80;99.90;;;9.62;49.23;97230.63;4941342;28;20114;-66
2021/05/07 08:56:53;;;;;;;9.30;5.03;;;10.60;99.90;;;9.31;45.16;97238.03;4943638;29;20039;-65
2021/05/07 08:59:40;;;;;;;9.75;4.97;;;11.00;99.90;;;9.64;44.61;97227.94;4938107;29;20043;-65
2021/05/07 09:02:30;;;;;;;7.03;4.78;;;11.40;99.90;;;10.82;42.66;97224.22;4942694;28;20055;-65
2021/05/07 09:05:31;;;;;;;7.50;4.50;;;11.80;99.90;;;10.02;45.76;97228.81;4933450;29;20079;-65
2021/05/07 09:08:18;;;;;;;8.60;5.22;;;12.30;99.90;;;8.90;46.70;97253.56;4943142;29;20067;-65
2021/05/07 09:11:04;;;;;;;8.77;4.97;;;12.20;99.90;;;9.33;46.41;97264.72;4935992;29;20397;-65
2021/05/07 09:14:03;;;;;;;7.93;4.85;;;11.50;99.90;;;9.30;44.95;97260.47;4946397;29;20073;-65
2021/05/07 09:17:02;;;;;;;8.98;4.82;;;11.00;99.90;;;8.98;46.40;97256.66;4929490;29;20468;-65
2021/05/07 09:20:01;;;;;;;9.88;5.47;;;10.80;99.90;;;8.17;46.62;97261.53;4932572;29;20195;-65
2021/05/07 09:22:47;;;;;;;8.98;4.10;;;10.60;99.90;;;8.04;48.60;97267.22;4952092;29;20047;-65
2021/05/07 09:25:34;;;;;;;7.63;4.65;;;10.20;99.90;;;8.35;50.14;97279.84;4947029;29;20083;-65
2021/05/07 09:28:21;;;;;;;11.32;5.10;;;10.10;99.90;;;8.30;50.28;97264.50;4931410;29;20133;-65
2021/05/07 09:31:19;;;;;;;9.75;5.90;;;10.10;99.90;;;7.94;48.69;97267.56;4945547;28;20058;-65
2021/05/07 09:34:07;;;;;;;7.47;4.28;;;9.90;99.90;;;7.82;48.57;97269.75;4944031;28;20044;-65
2021/05/07 09:36:54;;;;;;;6.82;4.35;;;9.30;99.90;;;7.57;50.17;97277.53;4950001;29;20043;-64
2021/05/07 09:39:40;;;;;;;8.07;4.88;;;9.10;99.90;;;8.20;47.71;97280.44;4931403;29;20047;-65
2021/05/07 09:42:28;;;;;;;10.40;4.80;;;10.10;99.90;;;10.07;46.99;97257.13;4949251;29;20474;-66
2021/05/07 09:45:24;;;;;;;7.57;4.80;;;11.10;99.90;;;9.43;47.13;97289.31;4947820;29;20103;-65
2021/05/07 09:48:22;;;;;;;7.63;3.75;;;11.40;99.90;;;10.11;42.43;97260.44;4928701;29;20040;-64
2021/05/07 09:51:12;;;;;;;4.70;2.95;;;11.80;99.50;;;9.12;42.54;97294.91;4948954;29;20345;-65
2021/05/07 09:54:08;;;;;;;6.10;3.05;;;12.30;97.90;;;9.45;42.35;97300.44;4950686;29;20138;-65
2021/05/07 09:56:55;;;;;;;4.88;2.80;;;12.40;97.50;;;11.06;39.70;97268.88;4932515;28;20225;-66
2021/05/07 09:59:43;;;;;;;6.35;3.03;;;13.10;96.70;;;9.80;43.32;97264.38;4934033;29;20039;-66
2021/05/07 10:02:30;;;;;;;6.43;3.47;;;13.30;96.40;;;9.53;44.79;97275.03;4948692;28;20047;-65
2021/05/07 10:05:18;;;;;;;5.03;3.05;;;12.90;96.50;;;9.47;44.91;97292.63;4926202;29;20052;-65
2021/05/07 10:08:05;;;;;;;5.78;4.05;;;12.60;97.40;;;8.98;47.69;97264.44;4930117;29;20660;-65
2021/05/07 10:10:58;;;;;;;6.72;3.90;;;12.70;98.20;;;8.99;47.08;97285.09;4928483;29;20395;-65
2021/05/07 10:13:47;;;;;;;5.95;3.00;;;12.50;98.20;;;9.95;47.65;97289.63;4943561;28;20218;-65
2021/05/07 10:16:35;;;;;;;4.90;3.25;;;12.90;99.30;;;9.58;47.01;97324.94;4954214;28;20058;-65
2021/05/07 10:19:22;;;;;;;5.43;2.83;;;12.90;98.90;;;8.07;52.41;97357.59;4926785;29;20040;-65
2021/05/07 10:22:15;;;;;;;;;;;11.60;99.90;;;7.80;55.34;97343.91;4943060;29;20031;-65
2021/05/07 10:25:17;;;;;;;6.47;3.83;;;10.60;99.90;;;7.45;58.17;97364.03;4946100;29;20310;-65
2021/05/07 10:28:15;;;;;;;12.30;3.30;;;10.00;99.90;;;7.60;58.08;97386.78;4947828;29;20066;-64
2021/05/07 10:31:05;;;;;;;5.32;2.50;;;9.60;99.90;;;7.46;58.58;97389.00;4947919;29;20076;-65
2021/05/07 10:34:00;;;;;;;7.57;3.38;;;9.30;99.90;;;6.93;61.98;97418.16;4944801;29;20035;-65
2021/05/07 10:37:02;;;;;;;6.78;3.75;;;8.60;99.90;;;6.06;68.94;97453.28;4938415;29;20051;-65
2021/05/07 10:39:54;;;;;;;5.53;3.03;;;7.60;99.90;;;5.40;74.15;97433.50;4938513;28;20409;-65
2021/05/07 10:42:41;;;;;;;7.05;3.67;;;6.70;99.90;;;4.57;76.14;97402.78;4937041;29;20039;-63
2021/05/07 10:45:45;;;;;;;6.55;4.25;;;6.30;99.90;;;5.00;76.46;97401.00;4947129;29;20570;-64
2021/05/07 10:48:32;;;;;;;;;;;6.10;99.90;;;6.04;76.30;97394.97;4941628;28;20070;-65
2021/05/07 10:51:20;;;;;;;5.25;3.33;;;6.70;99.90;;;7.25;70.31;97380.19;4934213;29;19965;-65
2021/05/07 10:54:10;;;;;;;10.75;3.70;;;8.20;99.90;;;8.45;70.78;97383.81;4950438;29;20384;-65
2021/05/07 10:56:57;;;;;;;5.88;3.25;;;9.90;99.90;;;9.49;66.72;97390.09;4947749;28;20062;-65
2021/05/07 10:59:58;;;;;;;5.72;3.33;;;11.30;99.90;;;10.40;65.29;97394.00;4938905;29;20579;-66
2021/05/07 11:02:54;;;;;;;5.45;3.40;;;12.20;99.90;;;10.82;62.81;97395.56;4936521;29;20040;-65
2021/05/07 11:05:51;;;;;;;5.93;3.63;;;13.10;99.90;;;11.82;58.97;97391.56;4945067;29;20043;-65
2021/05/07 11:08:38;;;;;;;7.55;4.03;;;13.90;99.90;;;11.76;59.75;97391.88;4936921;29;20512;-66
2021/05/07 11:11:34;;;;;;;6.93;3.72;;;14.00;99.90;;;11.93;56.93;97391.91;4952860;28;20040;-65
2021/05/07 11:14:11;;;;;;;7.75;3.33;;;14.80;99.90;;;13.25;55.86;97386.59;4944319;29;20047;-66
2021/05/07 11:16:43;;;;;;;7.18;4.00;;;15.80;99.90;;;12.54;57.00;97381.78;4916672;28;20062;-65
2021/05/07 11:19:27;;;;;;;5.13;2.83;;;15.90;99.90;;;13.75;51.98;97392.47;4929095;29;20060;-66
2021/05/07 11:22:13;;;;;;;7.75;3.90;;;16.00;99.90;;;12.38;55.61;97407.81;4932890;29;20076;-65
2021/05/07 11:25:02;;;;;;;5.63;3.95;;;15.30;99.90;;;12.45;53.82;97403.97;4939376;29;20036;-65
2021/05/07 11:27:49;;;;;;;6.15;2.75;;;14.60;99.90;;;12.41;50.29;97401.63;4938068;29;20050;-65
2021/05/07 11:30:57;;;;;;;6.65;2.58;;;15.30;99.90;;;13.38;49.06;97400.63;4940323;29;20051;-65
2021/05/07 11:33:44;;;;;;;3.50;1.73;;;15.80;99.90;;;13.10;44.30;97397.88;4931866;29;20047;-65
2021/05/07 11:36:31;;;;;;;2.88;1.40;;;16.40;99.40;;;13.37;41.28;97409.38;4943493;29;20051;-66
2021/05/07 11:39:18;;;;;;;2.45;1.10;;;16.30;95.90;;;12.96;39.17;97404.69;4937020;29;20501;-65
2021/05/07 11:42:05;;;;;;;2.38;1.20;;;15.50;93.80;;;12.09;40.54;97407.56;4930785;29;20534;-65
2021/05/07 11:44:51;;;;;;;3.28;1.17;;;14.20;94.50;;;11.06;42.88;97420.41;4931225;29;20048;-65
2021/05/07 11:47:39;;;;;;;4.13;1.13;;;13.70;95.40;;;10.93;42.99;97431.44;4944566;29;20039;-65
2021/05/07 11:50:27;;;;;;;4.20;1.73;;;12.80;96.30;;;10.37;44.90;97423.53;4933409;29;20055;-65
2021/05/07 11:53:23;;;;;;;4.05;1.52;;;12.00;98.20;;;11.47;43.09;97433.16;4944860;29;20187;-65
2021/05/07 11:56:22;;;;;;;4.40;1.25;;;12.80;98.20;;;11.64;41.46;97434.94;4944801;29;20054;-65
2021/05/07 11:59:09;;;;;;;4.03;1.60;;;13.40;96.30;;;11.09;41.93;97435.00;4932323;29;20054;-65